sensor_id;sensor_type;location;lat;lon;timestamp;pressure;altitude;pressure_sealevel;temperature;humidity
76106;BME280;64832;45.274;5.880;2022-11-20T00:02:11;98663.13;;;18.05;56.08
76106;BME280;64832;45.274;5.880;2022-11-20T00:04:36;98668.78;;;18.03;56.05
76106;BME280;64832;45.274;5.880;2022-11-20T00:07:02;98651.28;;;17.94;56.37
76106;BME280;64832;45.274;5.880;2022-11-20T00:09:27;98671.72;;;18.02;56.35
76106;BME280;64832;45.274;5.880;2022-11-20T00:11:52;98667.38;;;18.01;56.48
76106;BME280;64832;45.274;5.880;2022-11-20T00:14:18;98674.91;;;17.99;56.44
76106;BME280;64832;45.274;5.880;2022-11-20T00:16:44;98674.91;;;17.99;56.47
76106;BME280;64832;45.274;5.880;2022-11-20T00:19:09;98672.69;;;17.96;56.17
76106;BME280;64832;45.274;5.880;2022-11-20T00:21:34;98676.78;;;17.98;56.25
76106;BME280;64832;45.274;5.880;2022-11-20T00:24:00;98674.00;;;17.93;56.17
76106;BME280;64832;45.274;5.880;2022-11-20T00:26:26;98681.38;;;17.98;56.38
76106;BME280;64832;45.274;5.880;2022-11-20T00:28:57;98688.09;;;17.95;56.24
76106;BME280;64832;45.274;5.880;2022-11-20T03:00:59;98746.59;;;17.73;57.17
76106;BME280;64832;45.274;5.880;2022-11-20T03:03:25;98747.41;;;17.74;57.25
76106;BME280;64832;45.274;5.880;2022-11-20T03:05:50;98746.38;;;17.75;57.35
76106;BME280;64832;45.274;5.880;2022-11-20T03:08:15;98732.38;;;17.66;57.52
76106;BME280;64832;45.274;5.880;2022-11-20T03:10:41;98747.66;;;17.72;57.36
76106;BME280;64832;45.274;5.880;2022-11-20T03:13:06;98746.59;;;17.73;57.40
76106;BME280;64832;45.274;5.880;2022-11-20T03:15:31;98741.19;;;17.73;57.61
76106;BME280;64832;45.274;5.880;2022-11-20T03:17:57;98743.09;;;17.73;57.53
76106;BME280;64832;45.274;5.880;2022-11-20T03:20:22;98738.47;;;17.73;57.36
76106;BME280;64832;45.274;5.880;2022-11-20T03:22:48;98742.84;;;17.74;57.73
76106;BME280;64832;45.274;5.880;2022-11-20T03:25:13;98745.53;;;17.74;57.47
76106;BME280;64832;45.274;5.880;2022-11-20T03:27:39;98740.97;;;17.75;57.69
76106;BME280;64832;45.274;5.880;2022-11-20T06:30:48;98818.50;;;17.39;58.75
76106;BME280;64832;45.274;5.880;2022-11-20T06:33:13;98820.16;;;17.40;58.62
76106;BME280;64832;45.274;5.880;2022-11-20T06:35:38;98818.28;;;17.41;58.61
76106;BME280;64832;45.274;5.880;2022-11-20T06:38:04;98826.16;;;17.42;58.54
76106;BME280;64832;45.274;5.880;2022-11-20T06:40:29;98798.47;;;17.29;58.80
76106;BME280;64832;45.274;5.880;2022-11-20T06:42:54;98821.56;;;17.43;58.66
76106;BME280;64832;45.274;5.880;2022-11-20T06:45:20;98821.56;;;17.43;58.93
76106;BME280;64832;45.274;5.880;2022-11-20T06:47:46;98805.56;;;17.41;59.05
76106;BME280;64832;45.274;5.880;2022-11-20T06:50:11;98804.75;;;17.41;58.98
76106;BME280;64832;45.274;5.880;2022-11-20T06:52:37;98808.28;;;17.41;58.71
76106;BME280;64832;45.274;5.880;2022-11-20T06:55:02;98803.09;;;17.40;58.56
76106;BME280;64832;45.274;5.880;2022-11-20T06:57:28;98813.09;;;17.39;59.13
76106;BME280;64832;45.274;5.880;2022-11-20T06:59:54;98805.78;;;17.40;58.90
76106;BME280;64832;45.274;5.880;2022-11-20T07:02:19;98811.19;;;17.40;58.70
76106;BME280;64832;45.274;5.880;2022-11-20T07:04:45;98818.28;;;17.41;58.85
76106;BME280;64832;45.274;5.880;2022-11-20T07:07:10;98820.97;;;17.41;58.75
76106;BME280;64832;45.274;5.880;2022-11-20T07:09:35;98819.09;;;17.41;58.72
76106;BME280;64832;45.274;5.880;2022-11-20T07:12:01;98816.59;;;17.40;58.69
76106;BME280;64832;45.274;5.880;2022-11-20T07:14:26;98823.91;;;17.39;58.95
76106;BME280;64832;45.274;5.880;2022-11-20T07:16:52;98832.03;;;17.39;58.59
76106;BME280;64832;45.274;5.880;2022-11-20T07:19:17;98834.94;;;17.38;58.76
76106;BME280;64832;45.274;5.880;2022-11-20T07:21:43;98839.31;;;17.39;58.93
76106;BME280;64832;45.274;5.880;2022-11-20T07:24:08;98823.63;;;17.29;59.08
76106;BME280;64832;45.274;5.880;2022-11-20T07:26:33;98838.94;;;17.35;59.21
76106;BME280;64832;45.274;5.880;2022-11-20T07:28:59;98859.28;;;17.38;58.92
76106;BME280;64832;45.274;5.880;2022-11-20T07:31:24;98854.34;;;17.35;58.71
76106;BME280;64832;45.274;5.880;2022-11-20T07:33:49;98848.94;;;17.35;59.24
76106;BME280;64832;45.274;5.880;2022-11-20T07:36:15;98860.13;;;17.38;59.09
76106;BME280;64832;45.274;5.880;2022-11-20T07:38:40;98862.22;;;17.36;59.03
76106;BME280;64832;45.274;5.880;2022-11-20T07:41:06;98854.34;;;17.35;58.69
76106;BME280;64832;45.274;5.880;2022-11-20T07:43:31;98841.91;;;17.34;59.15
76106;BME280;64832;45.274;5.880;2022-11-20T07:45:57;98867.19;;;17.39;53.50
76106;BME280;64832;45.274;5.880;2022-11-20T07:48:24;98848.34;;;16.73;51.14
76106;BME280;64832;45.274;5.880;2022-11-20T07:50:49;98870.41;;;16.27;50.43
76106;BME280;64832;45.274;5.880;2022-11-20T07:53:14;98865.94;;;15.97;51.69
76106;BME280;64832;45.274;5.880;2022-11-20T07:55:45;98868.47;;;15.92;52.95
76106;BME280;64832;45.274;5.880;2022-11-20T07:58:11;98864.22;;;16.02;54.06
76106;BME280;64832;45.274;5.880;2022-11-20T08:00:36;98866.34;;;16.18;53.74
76106;BME280;64832;45.274;5.880;2022-11-20T08:03:03;98855.66;;;16.30;53.30
76106;BME280;64832;45.274;5.880;2022-11-20T08:05:29;98864.66;;;16.42;53.01
76106;BME280;64832;45.274;5.880;2022-11-20T08:07:54;98861.66;;;16.50;53.30
76106;BME280;64832;45.274;5.880;2022-11-20T08:10:20;98864.53;;;16.55;52.71
76106;BME280;64832;45.274;5.880;2022-11-20T08:12:47;98860.34;;;16.59;52.81
76106;BME280;64832;45.274;5.880;2022-11-20T08:15:32;98861.53;;;16.63;52.84
76106;BME280;64832;45.274;5.880;2022-11-20T08:18:16;98865.31;;;16.62;52.74
76106;BME280;64832;45.274;5.880;2022-11-20T08:20:42;98861.53;;;16.63;52.62
76106;BME280;64832;45.274;5.880;2022-11-20T08:23:08;98855.78;;;16.60;52.54
76106;BME280;64832;45.274;5.880;2022-11-20T08:25:34;98876.25;;;16.67;52.65
76106;BME280;64832;45.274;5.880;2022-11-20T08:28:06;98877.09;;;16.68;52.89
76106;BME280;64832;45.274;5.880;2022-11-20T08:30:32;98871.44;;;16.69;52.67
76106;BME280;64832;45.274;5.880;2022-11-20T08:33:02;98879.31;;;16.71;53.11
76106;BME280;64832;45.274;5.880;2022-11-20T08:35:28;98882.25;;;16.69;53.33
76106;BME280;64832;45.274;5.880;2022-11-20T08:37:53;98872.88;;;16.72;53.90
76106;BME280;64832;45.274;5.880;2022-11-20T08:40:19;98873.00;;;16.77;53.58
76106;BME280;64832;45.274;5.880;2022-11-20T08:42:50;98872.56;;;16.80;53.72
76106;BME280;64832;45.274;5.880;2022-11-20T08:45:16;98874.13;;;16.87;53.55
76106;BME280;64832;45.274;5.880;2022-11-20T08:47:42;98872.03;;;16.89;53.63
76106;BME280;64832;45.274;5.880;2022-11-20T08:50:09;98864.53;;;16.91;53.67
76106;BME280;64832;45.274;5.880;2022-11-20T08:52:35;98857.25;;;16.92;53.72
76106;BME280;64832;45.274;5.880;2022-11-20T08:55:01;98868.78;;;16.99;53.67
76106;BME280;64832;45.274;5.880;2022-11-20T08:57:26;98853.19;;;17.01;53.42
76106;BME280;64832;45.274;5.880;2022-11-20T08:59:51;98853.97;;;17.01;53.79
76106;BME280;64832;45.274;5.880;2022-11-20T09:02:17;98859.16;;;17.03;53.91
76106;BME280;64832;45.274;5.880;2022-11-20T09:04:42;98856.22;;;17.04;53.40
76106;BME280;64832;45.274;5.880;2022-11-20T09:07:08;98856.47;;;17.03;53.70
76106;BME280;64832;45.274;5.880;2022-11-20T09:09:33;98856.69;;;17.01;53.60
76106;BME280;64832;45.274;5.880;2022-11-20T09:11:58;98864.94;;;17.07;53.21
76106;BME280;64832;45.274;5.880;2022-11-20T09:14:24;98859.31;;;17.08;53.22
76106;BME280;64832;45.274;5.880;2022-11-20T09:16:54;98866.38;;;17.09;53.34
76106;BME280;64832;45.274;5.880;2022-11-20T09:19:20;98865.28;;;17.10;53.07
76106;BME280;64832;45.274;5.880;2022-11-20T09:21:45;98863.44;;;17.11;53.47
76106;BME280;64832;45.274;5.880;2022-11-20T09:24:10;98859.44;;;17.13;52.91
76106;BME280;64832;45.274;5.880;2022-11-20T09:26:36;98872.28;;;17.18;52.98
76106;BME280;64832;45.274;5.880;2022-11-20T09:29:01;98873.91;;;17.19;52.89
76106;BME280;64832;45.274;5.880;2022-11-20T09:31:28;98876.16;;;17.22;52.60
76106;BME280;64832;45.274;5.880;2022-11-20T09:33:53;98881.31;;;17.23;52.83
76106;BME280;64832;45.274;5.880;2022-11-20T09:36:19;98879.81;;;17.27;52.51
76106;BME280;64832;45.274;5.880;2022-11-20T09:38:47;98885.38;;;17.32;53.04
76106;BME280;64832;45.274;5.880;2022-11-20T09:47:03;98894.47;;;17.49;52.28
76106;BME280;64832;45.274;5.880;2022-11-20T09:55:03;98900.47;;;17.70;52.13
76106;BME280;64832;45.274;5.880;2022-11-20T09:57:35;98889.97;;;17.73;52.30
76106;BME280;64832;45.274;5.880;2022-11-20T10:00:04;98904.81;;;17.82;52.09
76106;BME280;64832;45.274;5.880;2022-11-20T10:26:31;98916.19;;;18.49;51.18
76106;BME280;64832;45.274;5.880;2022-11-20T10:29:11;98924.53;;;18.59;51.10
76106;BME280;64832;45.274;5.880;2022-11-20T10:31:40;98921.72;;;18.65;50.85
76106;BME280;64832;45.274;5.880;2022-11-20T10:34:30;98920.53;;;18.73;50.82
76106;BME280;64832;45.274;5.880;2022-11-20T10:37:00;98907.69;;;18.80;50.72
76106;BME280;64832;45.274;5.880;2022-11-20T10:39:35;98916.75;;;18.86;50.52
76106;BME280;64832;45.274;5.880;2022-11-20T10:42:02;98913.41;;;18.95;50.31
76106;BME280;64832;45.274;5.880;2022-11-20T10:44:28;98913.63;;;19.05;50.26
76106;BME280;64832;45.274;5.880;2022-11-20T10:47:15;98920.47;;;19.08;50.21
76106;BME280;64832;45.274;5.880;2022-11-20T10:49:42;98924.22;;;19.07;50.14
76106;BME280;64832;45.274;5.880;2022-11-20T10:52:25;98912.00;;;18.93;50.55
76106;BME280;64832;45.274;5.880;2022-11-20T10:58:16;98920.19;;;18.58;51.26
76106;BME280;64832;45.274;5.880;2022-11-20T11:00:46;98906.63;;;18.46;51.26
76106;BME280;64832;45.274;5.880;2022-11-20T11:03:24;98914.19;;;18.44;51.34
76106;BME280;64832;45.274;5.880;2022-11-20T11:06:37;98912.78;;;18.42;51.70
76106;BME280;64832;45.274;5.880;2022-11-20T11:09:11;98905.81;;;18.34;51.93
76106;BME280;64832;45.274;5.880;2022-11-20T11:11:39;98910.63;;;18.32;51.75
76106;BME280;64832;45.274;5.880;2022-11-20T11:14:12;98897.56;;;18.29;51.81
76106;BME280;64832;45.274;5.880;2022-11-20T11:19:19;98905.56;;;18.24;51.72
76106;BME280;64832;45.274;5.880;2022-11-20T11:21:58;98915.81;;;18.22;51.74
76106;BME280;64832;45.274;5.880;2022-11-20T11:24:29;98912.28;;;18.22;51.81
76106;BME280;64832;45.274;5.880;2022-11-20T11:27:00;98909.00;;;18.19;51.72
76106;BME280;64832;45.274;5.880;2022-11-20T11:29:30;98895.94;;;18.16;51.62
76106;BME280;64832;45.274;5.880;2022-11-20T11:32:07;98900.88;;;18.19;51.61
76106;BME280;64832;45.274;5.880;2022-11-20T11:34:33;98900.03;;;18.19;51.27
76106;BME280;64832;45.274;5.880;2022-11-20T11:37:00;98897.09;;;18.20;51.00
76106;BME280;64832;45.274;5.880;2022-11-20T11:39:30;98871.56;;;18.16;51.17
76106;BME280;64832;45.274;5.880;2022-11-20T11:41:57;98872.25;;;18.24;51.19
76106;BME280;64832;45.274;5.880;2022-11-20T11:44:30;98857.41;;;18.26;50.80
76106;BME280;64832;45.274;5.880;2022-11-20T11:47:37;98860.22;;;18.43;50.74
76106;BME280;64832;45.274;5.880;2022-11-20T11:55:34;98829.19;;;18.85;49.83
76106;BME280;64832;45.274;5.880;2022-11-20T11:58:14;98830.47;;;18.94;49.74
76106;BME280;64832;45.274;5.880;2022-11-20T12:01:03;98814.25;;;19.11;49.51
76106;BME280;64832;45.274;5.880;2022-11-20T12:03:40;98790.41;;;19.13;49.21
76106;BME280;64832;45.274;5.880;2022-11-20T12:06:11;98778.69;;;19.24;48.67
76106;BME280;64832;45.274;5.880;2022-11-20T12:08:56;98789.31;;;19.42;48.82
76106;BME280;64832;45.274;5.880;2022-11-20T12:14:02;98778.72;;;19.57;48.56
76106;BME280;64832;45.274;5.880;2022-11-20T12:16:37;98786.94;;;19.62;48.49
76106;BME280;64832;45.274;5.880;2022-11-20T12:19:10;98780.75;;;19.67;48.38
76106;BME280;64832;45.274;5.880;2022-11-20T12:21:49;98774.63;;;19.71;48.65
76106;BME280;64832;45.274;5.880;2022-11-20T12:32:35;98754.75;;;19.87;48.14
76106;BME280;64832;45.274;5.880;2022-11-20T12:41:02;98746.03;;;20.02;48.14
76106;BME280;64832;45.274;5.880;2022-11-20T12:43:37;98747.91;;;20.02;48.19
76106;BME280;64832;45.274;5.880;2022-11-20T12:52:07;98718.34;;;20.05;48.90
76106;BME280;64832;45.274;5.880;2022-11-20T12:54:43;98715.06;;;20.03;49.04
76106;BME280;64832;45.274;5.880;2022-11-20T13:00:10;98710.53;;;20.09;49.09
76106;BME280;64832;45.274;5.880;2022-11-20T13:08:33;98685.22;;;20.25;49.54
76106;BME280;64832;45.274;5.880;2022-11-20T13:18:50;98679.84;;;20.30;49.08
76106;BME280;64832;45.274;5.880;2022-11-20T13:21:22;98692.91;;;20.33;48.99
76106;BME280;64832;45.274;5.880;2022-11-20T13:23:48;98689.41;;;20.32;48.77
76106;BME280;64832;45.274;5.880;2022-11-20T13:26:19;98692.41;;;20.36;48.82
76106;BME280;64832;45.274;5.880;2022-11-20T13:28:47;98697.63;;;20.37;48.62
76106;BME280;64832;45.274;5.880;2022-11-20T13:31:29;98690.03;;;20.39;48.60
76106;BME280;64832;45.274;5.880;2022-11-20T13:33:56;98684.22;;;20.31;48.50
76106;BME280;64832;45.274;5.880;2022-11-20T13:36:25;98695.19;;;20.41;48.36
76106;BME280;64832;45.274;5.880;2022-11-20T13:38:53;98697.16;;;20.45;48.17
76106;BME280;64832;45.274;5.880;2022-11-20T13:41:35;98700.75;;;20.51;48.13
76106;BME280;64832;45.274;5.880;2022-11-20T13:46:45;98708.13;;;20.56;48.03
76106;BME280;64832;45.274;5.880;2022-11-20T13:49:30;98724.19;;;20.57;48.13
76106;BME280;64832;45.274;5.880;2022-11-20T13:55:16;98707.94;;;20.62;47.86
76106;BME280;64832;45.274;5.880;2022-11-20T14:00:28;98717.22;;;20.66;47.73
76106;BME280;64832;45.274;5.880;2022-11-20T14:05:35;98709.06;;;20.66;47.58
76106;BME280;64832;45.274;5.880;2022-11-20T14:08:03;98720.50;;;20.68;47.49
76106;BME280;64832;45.274;5.880;2022-11-20T14:10:30;98712.88;;;20.65;47.59
76106;BME280;64832;45.274;5.880;2022-11-20T14:12:56;98718.31;;;20.65;47.54
76106;BME280;64832;45.274;5.880;2022-11-20T14:15:25;98718.03;;;20.67;47.67
76106;BME280;64832;45.274;5.880;2022-11-20T14:17:50;98721.78;;;20.61;47.60
76106;BME280;64832;45.274;5.880;2022-11-20T14:20:16;98721.25;;;20.64;47.45
76106;BME280;64832;45.274;5.880;2022-11-20T14:22:49;98719.63;;;20.63;47.67
76106;BME280;64832;45.274;5.880;2022-11-20T14:27:42;98700.91;;;20.66;47.91
76106;BME280;64832;45.274;5.880;2022-11-20T14:30:29;98701.03;;;20.76;48.17
76106;BME280;64832;45.274;5.880;2022-11-20T14:33:00;98695.00;;;20.74;48.06
76106;BME280;64832;45.274;5.880;2022-11-20T14:35:29;98697.72;;;20.74;48.12
76106;BME280;64832;45.274;5.880;2022-11-20T14:37:55;98696.97;;;20.79;48.11
76106;BME280;64832;45.274;5.880;2022-11-20T14:40:35;98694.63;;;20.87;48.42
76106;BME280;64832;45.274;5.880;2022-11-20T14:43:01;98692.75;;;20.93;48.23
76106;BME280;64832;45.274;5.880;2022-11-20T14:45:30;98687.97;;;21.05;47.98
76106;BME280;64832;45.274;5.880;2022-11-20T14:47:56;98695.84;;;21.33;47.56
76106;BME280;64832;45.274;5.880;2022-11-20T14:50:27;98692.06;;;21.76;46.92
76106;BME280;64832;45.274;5.880;2022-11-20T14:52:54;98689.44;;;21.91;46.78
76106;BME280;64832;45.274;5.880;2022-11-20T14:55:31;98678.31;;;21.98;46.99
76106;BME280;64832;45.274;5.880;2022-11-20T14:58:03;98672.91;;;22.08;46.59
76106;BME280;64832;45.274;5.880;2022-11-20T15:00:30;98677.88;;;22.26;46.16
76106;BME280;64832;45.274;5.880;2022-11-20T15:02:56;98671.13;;;22.39;45.88
76106;BME280;64832;45.274;5.880;2022-11-20T15:05:25;98672.22;;;22.43;45.85
76106;BME280;64832;45.274;5.880;2022-11-20T15:08:05;98662.22;;;22.73;45.62
76106;BME280;64832;45.274;5.880;2022-11-20T15:10:32;98656.53;;;22.95;45.13
76106;BME280;64832;45.274;5.880;2022-11-20T15:13:05;98666.06;;;22.93;45.26
76106;BME280;64832;45.274;5.880;2022-11-20T15:18:16;98671.25;;;22.79;45.72
76106;BME280;64832;45.274;5.880;2022-11-20T15:20:44;98671.69;;;22.46;45.79
76106;BME280;64832;45.274;5.880;2022-11-20T15:23:12;98661.22;;;22.12;46.48
76106;BME280;64832;45.274;5.880;2022-11-20T15:25:39;98669.00;;;21.89;46.76
76106;BME280;64832;45.274;5.880;2022-11-20T15:28:24;98671.06;;;21.72;47.04
76106;BME280;64832;45.274;5.880;2022-11-20T15:30:52;98686.50;;;21.56;47.69
76106;BME280;64832;45.274;5.880;2022-11-20T15:33:17;98680.94;;;21.41;47.69
76106;BME280;64832;45.274;5.880;2022-11-20T15:35:44;98679.47;;;21.28;47.96
76106;BME280;64832;45.274;5.880;2022-11-20T15:38:09;98694.41;;;21.21;48.29
76106;BME280;64832;45.274;5.880;2022-11-20T15:40:35;98689.94;;;21.10;48.34
76106;BME280;64832;45.274;5.880;2022-11-20T15:43:01;98701.56;;;21.05;48.70
76106;BME280;64832;45.274;5.880;2022-11-20T15:48:01;98697.56;;;20.86;48.77
76106;BME280;64832;45.274;5.880;2022-11-20T15:50:32;98702.44;;;20.84;48.85
76106;BME280;64832;45.274;5.880;2022-11-20T15:52:59;98699.94;;;20.77;49.07
76106;BME280;64832;45.274;5.880;2022-11-20T15:55:24;98703.44;;;20.73;49.10
76106;BME280;64832;45.274;5.880;2022-11-20T15:57:50;98718.59;;;20.69;49.25
76106;BME280;64832;45.274;5.880;2022-11-20T16:00:16;98718.53;;;20.64;49.46
76106;BME280;64832;45.274;5.880;2022-11-20T16:02:41;98715.53;;;20.60;49.51
76106;BME280;64832;45.274;5.880;2022-11-20T16:05:11;98730.19;;;20.59;49.48
76106;BME280;64832;45.274;5.880;2022-11-20T16:07:37;98714.84;;;20.48;49.09
76106;BME280;64832;45.274;5.880;2022-11-20T16:10:03;98717.63;;;20.53;49.42
76106;BME280;64832;45.274;5.880;2022-11-20T16:12:28;98714.91;;;20.53;49.44
76106;BME280;64832;45.274;5.880;2022-11-20T16:15:12;98705.81;;;20.42;44.55
76106;BME280;64832;45.274;5.880;2022-11-20T16:17:56;98715.34;;;20.02;43.08
76106;BME280;64832;45.274;5.880;2022-11-20T16:20:22;98721.56;;;19.64;43.09
76106;BME280;64832;45.274;5.880;2022-11-20T16:22:47;98724.84;;;19.32;43.02
76106;BME280;64832;45.274;5.880;2022-11-20T16:25:13;98737.91;;;19.19;45.08
76106;BME280;64832;45.274;5.880;2022-11-20T16:27:38;98736.84;;;19.20;45.91
76106;BME280;64832;45.274;5.880;2022-11-20T16:30:04;98739.25;;;19.33;46.39
76106;BME280;64832;45.274;5.880;2022-11-20T16:32:29;98752.72;;;19.45;46.06
76106;BME280;64832;45.274;5.880;2022-11-20T16:34:54;98746.75;;;19.43;45.52
76106;BME280;64832;45.274;5.880;2022-11-20T16:37:20;98766.56;;;19.60;45.36
76106;BME280;64832;45.274;5.880;2022-11-20T16:39:45;98765.56;;;19.66;46.03
76106;BME280;64832;45.274;5.880;2022-11-20T16:42:10;98785.22;;;19.73;46.11
76106;BME280;64832;45.274;5.880;2022-11-20T16:44:36;98785.47;;;19.71;46.08
76106;BME280;64832;45.274;5.880;2022-11-20T16:47:01;98803.78;;;19.81;45.61
76106;BME280;64832;45.274;5.880;2022-11-20T16:49:26;98801.91;;;19.81;45.47
76106;BME280;64832;45.274;5.880;2022-11-20T16:51:52;98803.06;;;19.85;45.52
76106;BME280;64832;45.274;5.880;2022-11-20T16:54:17;98806.84;;;19.84;46.04
76106;BME280;64832;45.274;5.880;2022-11-20T16:56:42;98814.72;;;19.86;46.00
76106;BME280;64832;45.274;5.880;2022-11-20T16:59:08;98822.63;;;19.87;45.88
76106;BME280;64832;45.274;5.880;2022-11-20T17:01:34;98826.75;;;19.90;45.93
76106;BME280;64832;45.274;5.880;2022-11-20T17:04:04;98835.44;;;19.92;45.98
76106;BME280;64832;45.274;5.880;2022-11-20T17:06:33;98848.47;;;19.90;46.32
76106;BME280;64832;45.274;5.880;2022-11-20T17:08:58;98856.13;;;19.93;46.31
76106;BME280;64832;45.274;5.880;2022-11-20T17:11:24;98854.72;;;19.90;46.64
76106;BME280;64832;45.274;5.880;2022-11-20T17:13:51;98858.97;;;19.86;46.73
76106;BME280;64832;45.274;5.880;2022-11-20T17:16:19;98857.59;;;19.84;47.16
76106;BME280;64832;45.274;5.880;2022-11-20T17:18:45;98858.34;;;19.79;47.35
76106;BME280;64832;45.274;5.880;2022-11-20T17:21:10;98848.19;;;19.75;47.36
76106;BME280;64832;45.274;5.880;2022-11-20T17:23:40;98834.88;;;19.73;47.52
76106;BME280;64832;45.274;5.880;2022-11-20T17:26:14;98838.09;;;19.70;47.65
76106;BME280;64832;45.274;5.880;2022-11-20T17:28:42;98838.59;;;19.67;47.75
76106;BME280;64832;45.274;5.880;2022-11-20T17:31:12;98838.00;;;19.65;47.71
76106;BME280;64832;45.274;5.880;2022-11-20T17:33:40;98844.75;;;19.63;47.92
76106;BME280;64832;45.274;5.880;2022-11-20T17:36:07;98848.78;;;19.60;47.96
76106;BME280;64832;45.274;5.880;2022-11-20T17:38:33;98853.63;;;19.58;48.20
76106;BME280;64832;45.274;5.880;2022-11-20T17:43:31;98848.38;;;19.52;48.15
76106;BME280;64832;45.274;5.880;2022-11-20T17:45:57;98854.34;;;19.54;48.15
76106;BME280;64832;45.274;5.880;2022-11-20T17:48:23;98866.28;;;19.53;48.16
76106;BME280;64832;45.274;5.880;2022-11-20T17:50:49;98859.44;;;19.50;48.04
76106;BME280;64832;45.274;5.880;2022-11-20T17:53:15;98879.53;;;19.49;48.22
76106;BME280;64832;45.274;5.880;2022-11-20T17:55:40;98883.22;;;19.43;48.31
76106;BME280;64832;45.274;5.880;2022-11-20T17:58:27;98882.94;;;19.45;48.30
76106;BME280;64832;45.274;5.880;2022-11-20T18:00:52;98894.06;;;19.43;48.21
76106;BME280;64832;45.274;5.880;2022-11-20T18:03:17;98889.69;;;19.42;48.48
76106;BME280;64832;45.274;5.880;2022-11-20T18:05:43;98887.22;;;19.41;48.44
76106;BME280;64832;45.274;5.880;2022-11-20T18:08:08;98896.88;;;19.36;48.25
76106;BME280;64832;45.274;5.880;2022-11-20T18:10:33;98905.50;;;19.33;48.40
76106;BME280;64832;45.274;5.880;2022-11-20T18:12:59;98911.53;;;19.35;48.32
76106;BME280;64832;45.274;5.880;2022-11-20T18:15:24;98907.41;;;19.33;48.25
76106;BME280;64832;45.274;5.880;2022-11-20T18:17:50;98906.56;;;19.32;48.10
76106;BME280;64832;45.274;5.880;2022-11-20T18:20:15;98905.19;;;19.30;48.29
76106;BME280;64832;45.274;5.880;2022-11-20T18:22:41;98905.66;;;19.27;48.26
76106;BME280;64832;45.274;5.880;2022-11-20T18:25:06;98914.00;;;19.25;48.43
76106;BME280;64832;45.274;5.880;2022-11-20T18:27:32;98917.34;;;19.27;48.49
76106;BME280;64832;45.274;5.880;2022-11-20T18:29:57;98912.63;;;19.23;48.40
76106;BME280;64832;45.274;5.880;2022-11-20T18:32:23;98923.47;;;19.23;48.29
76106;BME280;64832;45.274;5.880;2022-11-20T18:34:49;98922.88;;;19.21;48.34
76106;BME280;64832;45.274;5.880;2022-11-20T18:37:16;98932.44;;;19.23;48.46
76106;BME280;64832;45.274;5.880;2022-11-20T18:39:41;98932.69;;;19.22;48.44
76106;BME280;64832;45.274;5.880;2022-11-20T18:42:12;98928.31;;;19.21;48.47
76106;BME280;64832;45.274;5.880;2022-11-20T18:44:56;98939.38;;;19.19;48.36
76106;BME280;64832;45.274;5.880;2022-11-20T18:47:30;98928.78;;;19.18;48.36
76106;BME280;64832;45.274;5.880;2022-11-20T18:49:58;98920.91;;;19.16;48.38
76106;BME280;64832;45.274;5.880;2022-11-20T18:54:51;98926.56;;;19.15;48.45
76106;BME280;64832;45.274;5.880;2022-11-20T18:57:23;98925.97;;;19.13;48.47
76106;BME280;64832;45.274;5.880;2022-11-20T18:59:49;98932.47;;;19.12;48.27
76106;BME280;64832;45.274;5.880;2022-11-20T19:02:17;98928.91;;;19.11;48.42
76106;BME280;64832;45.274;5.880;2022-11-20T19:04:43;98930.22;;;19.09;48.42
76106;BME280;64832;45.274;5.880;2022-11-20T19:07:09;98933.75;;;19.09;48.46
76106;BME280;64832;45.274;5.880;2022-11-20T19:09:42;98906.91;;;19.08;48.46
76106;BME280;64832;45.274;5.880;2022-11-20T19:12:09;98913.94;;;19.09;48.46
76106;BME280;64832;45.274;5.880;2022-11-20T19:14:35;98909.63;;;19.08;48.59
76106;BME280;64832;45.274;5.880;2022-11-20T19:17:00;98916.34;;;19.05;48.60
76106;BME280;64832;45.274;5.880;2022-11-20T19:19:26;98930.69;;;19.06;48.52
76106;BME280;64832;45.274;5.880;2022-11-20T19:21:51;98923.88;;;19.03;48.62
76106;BME280;64832;45.274;5.880;2022-11-20T19:24:17;98911.53;;;18.96;48.52
76106;BME280;64832;45.274;5.880;2022-11-20T19:26:42;98929.56;;;19.02;48.48
76106;BME280;64832;45.274;5.880;2022-11-20T19:29:12;98946.66;;;19.02;48.56
76106;BME280;64832;45.274;5.880;2022-11-20T19:31:38;98949.00;;;18.99;48.58
76106;BME280;64832;45.274;5.880;2022-11-20T19:34:04;98930.41;;;18.91;48.54
76106;BME280;64832;45.274;5.880;2022-11-20T19:36:34;98955.25;;;18.99;48.60
76106;BME280;64832;45.274;5.880;2022-11-20T19:39:01;98952.75;;;18.98;48.58
76106;BME280;64832;45.274;5.880;2022-11-20T19:41:29;98958.66;;;18.95;48.60
76106;BME280;64832;45.274;5.880;2022-11-20T19:46:21;98983.88;;;18.95;48.71
76106;BME280;64832;45.274;5.880;2022-11-20T19:48:46;98970.34;;;18.95;48.86
76106;BME280;64832;45.274;5.880;2022-11-20T19:51:16;98952.09;;;18.91;49.05
76106;BME280;64832;45.274;5.880;2022-11-20T19:53:43;98956.19;;;18.93;48.83
76106;BME280;64832;45.274;5.880;2022-11-20T19:56:08;98961.88;;;18.92;49.04
76106;BME280;64832;45.274;5.880;2022-11-20T19:58:34;98970.00;;;18.92;49.06
76106;BME280;64832;45.274;5.880;2022-11-20T20:01:14;98967.53;;;18.90;49.19
76106;BME280;64832;45.274;5.880;2022-11-20T20:03:41;98956.94;;;18.89;49.04
76106;BME280;64832;45.274;5.880;2022-11-20T20:06:09;98955.25;;;18.88;49.12
76106;BME280;64832;45.274;5.880;2022-11-20T20:08:36;98949.84;;;18.88;49.12
76106;BME280;64832;45.274;5.880;2022-11-20T20:11:18;98957.97;;;18.88;49.21
76106;BME280;64832;45.274;5.880;2022-11-20T20:13:45;98939.47;;;18.85;49.26
76106;BME280;64832;45.274;5.880;2022-11-20T20:16:14;98947.59;;;18.85;49.19
76106;BME280;64832;45.274;5.880;2022-11-20T20:18:40;98943.25;;;18.84;49.22
76106;BME280;64832;45.274;5.880;2022-11-20T20:21:13;98948.91;;;18.82;49.05
76106;BME280;64832;45.274;5.880;2022-11-20T20:23:39;98941.84;;;18.81;49.27
76106;BME280;64832;45.274;5.880;2022-11-20T20:26:07;98944.53;;;18.81;49.22
76106;BME280;64832;45.274;5.880;2022-11-20T20:28:34;98929.38;;;18.80;49.29
76106;BME280;64832;45.274;5.880;2022-11-20T20:31:11;98928.53;;;18.80;49.04